Time;durP1;ratioP1;P1;durP2;ratioP2;P2;SDS_P1;SDS_P2;PMS_P1;PMS_P2;Temp;Humidity;BMP_temperature;BMP_pressure;BME280_temperature;BME280_humidity;BME280_pressure;Samples;Min_cycle;Max_cycle;Signal;HPM_P1;HPM_P2
2021/03/08 00:00:26;;;;;;;1999.90;999.90;;;18.00;74.10;;;;;;5052832;28;20173;-47
2021/03/08 00:02:54;;;;;;;1999.90;999.90;;;17.90;74.20;;;;;;5052857;28;20173;-52
2021/03/08 00:05:21;;;;;;;1999.90;999.90;;;18.00;74.20;;;;;;5052828;28;20166;-45
2021/03/08 00:07:48;;;;;;;1999.90;999.90;;;18.00;74.10;;;;;;5052662;28;20220;-45
2021/03/08 00:10:17;;;;;;;1999.90;999.90;;;18.00;74.10;;;;;;5052784;28;20177;-45
2021/03/08 00:12:45;;;;;;;1999.90;999.90;;;18.00;74.40;;;;;;5053101;28;20512;-45
2021/03/08 00:15:13;;;;;;;1999.90;999.90;;;17.90;74.40;;;;;;5052634;28;20201;-45
2021/03/08 00:17:40;;;;;;;1999.90;999.90;;;17.80;74.70;;;;;;5052800;28;20166;-44
2021/03/08 00:20:09;;;;;;;1999.90;999.90;;;17.90;74.90;;;;;;5052787;28;20161;-45
2021/03/08 00:22:37;;;;;;;1999.90;999.90;;;17.90;74.80;;;;;;5052673;28;20244;-45
2021/03/08 00:25:09;;;;;;;1999.90;999.90;;;17.90;74.70;;;;;;5052618;28;20601;-44
2021/03/08 00:27:36;;;;;;;1999.90;999.90;;;18.00;74.70;;;;;;5052678;28;20161;-44
2021/03/08 00:30:04;;;;;;;1999.90;999.90;;;17.90;74.80;;;;;;5052555;28;20173;-44
2021/03/08 00:32:31;;;;;;;1999.90;999.90;;;17.90;75.10;;;;;;5052343;28;20282;-44
2021/03/08 00:34:59;;;;;;;1999.90;999.90;;;17.90;75.30;;;;;;5052423;28;20280;-44
2021/03/08 00:37:30;;;;;;;1999.90;999.90;;;17.90;75.00;;;;;;5052521;28;20176;-46
2021/03/08 00:40:06;;;;;;;1999.90;999.90;;;18.00;75.00;;;;;;5052429;28;20165;-44
2021/03/08 00:42:33;;;;;;;1999.90;999.90;;;17.90;75.00;;;;;;5052525;28;20501;-45
2021/03/08 00:45:00;;;;;;;1999.90;999.90;;;17.90;75.40;;;;;;5052456;28;20227;-46
2021/03/08 00:47:27;;;;;;;1999.90;999.90;;;17.80;75.20;;;;;;5052383;28;20168;-46
2021/03/08 00:49:54;;;;;;;1999.90;999.90;;;17.80;75.10;;;;;;5052444;28;20165;-45
2021/03/08 00:52:21;;;;;;;1999.90;999.90;;;17.70;75.30;;;;;;5052335;28;20165;-45
2021/03/08 00:54:48;;;;;;;1999.90;999.90;;;17.70;75.70;;;;;;5052622;28;20561;-46
2021/03/08 00:57:14;;;;;;;1999.90;999.90;;;17.70;75.50;;;;;;5052447;28;20172;-46
2021/03/08 00:59:41;;;;;;;1999.90;999.90;;;17.70;75.50;;;;;;5052384;28;20165;-46
2021/03/08 01:02:08;;;;;;;1999.90;999.90;;;17.60;75.80;;;;;;5052318;28;20158;-46
2021/03/08 01:04:35;;;;;;;1999.90;999.90;;;17.70;75.60;;;;;;5052206;28;20633;-46
2021/03/08 01:07:01;;;;;;;1999.90;999.90;;;17.60;75.60;;;;;;5052271;28;20169;-46
2021/03/08 01:09:28;;;;;;;1999.90;999.90;;;17.60;75.90;;;;;;5053844;28;20172;-53
2021/03/08 01:11:55;;;;;;;1999.90;999.90;;;17.50;76.10;;;;;;5055895;28;20569;-46
2021/03/08 01:14:22;;;;;;;1999.90;999.90;;;17.60;76.20;;;;;;5055708;28;20180;-46
2021/03/08 01:16:49;;;;;;;1999.90;999.90;;;17.50;76.30;;;;;;5055778;28;20181;-46
2021/03/08 01:19:16;;;;;;;1999.90;999.90;;;17.60;76.10;;;;;;5055891;28;20621;-51
2021/03/08 01:21:43;;;;;;;1999.90;999.90;;;17.60;76.10;;;;;;5054471;28;20541;-46
2021/03/08 01:24:11;;;;;;;1999.90;999.90;;;17.70;75.90;;;;;;5055622;28;20199;-44
2021/03/08 01:26:37;;;;;;;1999.90;999.90;;;17.70;75.90;;;;;;5055622;28;20543;-45
2021/03/08 01:29:05;;;;;;;1999.90;999.90;;;17.60;76.00;;;;;;5055566;28;20197;-44
2021/03/08 01:31:31;;;;;;;1999.90;999.90;;;17.60;76.10;;;;;;5055572;28;20169;-44
2021/03/08 01:33:58;;;;;;;1999.90;999.90;;;17.60;76.30;;;;;;5055271;28;20607;-45
2021/03/08 01:36:25;;;;;;;1999.90;999.90;;;17.60;76.30;;;;;;5055378;28;20201;-45
2021/03/08 01:38:55;;;;;;;1999.90;999.90;;;17.60;76.30;;;;;;5055298;28;20284;-45
2021/03/08 01:41:22;;;;;;;1999.90;999.90;;;17.70;76.20;;;;;;5055322;28;20166;-45
2021/03/08 01:43:48;;;;;;;1999.90;999.90;;;17.80;75.90;;;;;;5055415;28;20173;-44
2021/03/08 01:46:15;;;;;;;1999.90;999.90;;;17.80;75.70;;;;;;5055355;28;20175;-44
2021/03/08 01:48:42;;;;;;;1999.90;999.90;;;17.80;75.60;;;;;;5055199;28;20628;-44
2021/03/08 01:51:09;;;;;;;1999.90;999.90;;;17.80;75.70;;;;;;5055187;28;20165;-44
2021/03/08 01:53:37;;;;;;;1999.90;999.90;;;17.90;75.50;;;;;;5055084;28;20164;-45
2021/03/08 01:56:04;;;;;;;1999.90;999.90;;;17.90;75.60;;;;;;5055008;28;20223;-44
2021/03/08 01:58:32;;;;;;;1999.90;999.90;;;17.90;75.70;;;;;;5055040;28;20176;-44
2021/03/08 02:00:59;;;;;;;1999.90;999.90;;;17.90;75.80;;;;;;5054997;28;20624;-44
2021/03/08 02:03:27;;;;;;;1999.90;999.90;;;17.80;75.80;;;;;;5054978;28;20165;-44
2021/03/08 02:05:53;;;;;;;1999.90;999.90;;;17.90;75.80;;;;;;5054986;28;20623;-44
2021/03/08 02:08:22;;;;;;;1999.90;999.90;;;17.80;75.90;;;;;;5054957;28;20165;-44
2021/03/08 02:10:50;;;;;;;1999.90;999.90;;;17.80;76.00;;;;;;5054809;28;20173;-44
2021/03/08 02:13:44;;;;;;;1999.90;999.90;;;17.80;76.10;;;;;;5054878;28;20161;-49
2021/03/08 02:16:54;;;;;;;1999.90;999.90;;;17.80;76.30;;;;;;5054679;28;20220;-44
2021/03/08 02:20:18;;;;;;;1999.90;999.90;;;17.80;76.40;;;;;;5054801;28;20520;-44
2021/03/08 02:23:09;;;;;;;1999.90;999.90;;;17.80;76.70;;;;;;5012677;28;20177;-44
2021/03/08 02:26:11;;;;;;;1999.90;999.90;;;17.70;76.70;;;;;;5012814;28;20174;-45
2021/03/08 02:28:47;;;;;;;1999.90;999.90;;;17.80;76.70;;;;;;5049947;28;20180;-49
2021/03/08 02:31:19;;;;;;;1999.90;999.90;;;17.90;76.40;;;;;;5054428;28;20683;-44
2021/03/08 02:33:54;;;;;;;1999.90;999.90;;;17.80;76.20;;;;;;5054199;28;20225;-48
2021/03/08 02:36:25;;;;;;;1999.90;999.90;;;17.90;76.50;;;;;;5054239;28;20232;-45
2021/03/08 02:39:01;;;;;;;1999.90;999.90;;;17.90;76.20;;;;;;5054530;28;20161;-48
2021/03/08 02:41:29;;;;;;;1999.90;999.90;;;17.90;76.30;;;;;;5054289;28;20184;-48
2021/03/08 02:44:09;;;;;;;1999.90;999.90;;;17.90;76.50;;;;;;5054191;28;20173;-46
2021/03/08 02:46:38;;;;;;;1999.90;999.90;;;17.80;76.40;;;;;;5054177;28;20240;-44
2021/03/08 02:49:14;;;;;;;1999.90;999.90;;;17.80;76.40;;;;;;5054087;28;20247;-44
2021/03/08 02:51:47;;;;;;;1999.90;999.90;;;17.90;76.60;;;;;;5054014;28;20268;-44
2021/03/08 02:54:16;;;;;;;1999.90;999.90;;;17.80;76.60;;;;;;5053910;28;20746;-44
2021/03/08 02:56:46;;;;;;;1999.90;999.90;;;17.80;76.30;;;;;;5053929;28;20248;-44
2021/03/08 02:59:16;;;;;;;1999.90;999.90;;;17.90;76.20;;;;;;5053894;28;20154;-44
2021/03/08 03:01:43;;;;;;;1999.90;999.90;;;17.90;76.30;;;;;;5053765;28;20162;-44
2021/03/08 03:04:12;;;;;;;1999.90;999.90;;;18.00;76.10;;;;;;5053676;28;20209;-44
2021/03/08 03:06:39;;;;;;;1999.90;999.90;;;17.90;75.90;;;;;;5053678;28;20172;-43
2021/03/08 03:09:10;;;;;;;1999.90;999.90;;;18.00;75.60;;;;;;5053678;28;20758;-45
2021/03/08 03:11:40;;;;;;;1999.90;999.90;;;18.00;75.90;;;;;;5053549;28;20520;-51
2021/03/08 03:14:08;;;;;;;1999.90;999.90;;;18.00;75.90;;;;;;5053542;28;20177;-43
2021/03/08 03:16:36;;;;;;;1999.90;999.90;;;18.00;75.90;;;;;;5053703;28;20208;-44
2021/03/08 03:19:03;;;;;;;1999.90;999.90;;;18.00;75.80;;;;;;5053423;28;20568;-44
2021/03/08 03:21:34;;;;;;;1999.90;999.90;;;18.00;75.70;;;;;;5053455;28;20173;-44
2021/03/08 03:24:01;;;;;;;1999.90;999.90;;;18.00;75.60;;;;;;5053466;28;20157;-44
2021/03/08 03:26:32;;;;;;;1999.90;999.90;;;18.00;75.90;;;;;;5053530;28;20640;-47
2021/03/08 03:29:00;;;;;;;1999.90;999.90;;;18.00;75.70;;;;;;5053421;28;20153;-46
2021/03/08 03:31:27;;;;;;;1999.90;999.90;;;18.00;75.60;;;;;;5053177;28;20196;-46
2021/03/08 03:33:57;;;;;;;1999.90;999.90;;;18.00;75.70;;;;;;5053218;28;20209;-45
2021/03/08 03:36:31;;;;;;;1999.90;999.90;;;18.00;75.90;;;;;;5053278;28;20212;-46
2021/03/08 03:38:59;;;;;;;1999.90;999.90;;;18.00;75.70;;;;;;5053384;28;20674;-45
2021/03/08 03:41:27;;;;;;;1999.90;999.90;;;18.00;75.70;;;;;;5053271;28;20197;-45
2021/03/08 03:43:54;;;;;;;1999.90;999.90;;;17.90;76.20;;;;;;5053543;28;20173;-44
2021/03/08 03:46:21;;;;;;;1999.90;999.90;;;17.90;76.10;;;;;;5053062;28;20226;-44
2021/03/08 03:48:48;;;;;;;1999.90;999.90;;;17.90;76.20;;;;;;5053091;28;20608;-44
2021/03/08 03:51:15;;;;;;;1999.90;999.90;;;17.90;76.30;;;;;;5052926;28;20165;-45
2021/03/08 03:53:42;;;;;;;1999.90;999.90;;;18.00;76.40;;;;;;5053016;28;20169;-44
2021/03/08 03:56:15;;;;;;;1999.90;999.90;;;18.00;76.30;;;;;;5052878;28;20220;-45
2021/03/08 03:59:24;;;;;;;1999.90;999.90;;;18.00;76.20;;;;;;5052889;28;20172;-45
2021/03/08 04:02:01;;;;;;;1999.90;999.90;;;17.90;76.30;;;;;;5041717;28;20195;-44
2021/03/08 04:04:35;;;;;;;1999.90;999.90;;;17.90;76.60;;;;;;5053009;28;20687;-45
2021/03/08 04:07:05;;;;;;;1999.90;999.90;;;17.90;76.70;;;;;;5052891;28;20199;-45
2021/03/08 04:09:33;;;;;;;1999.90;999.90;;;17.90;76.90;;;;;;5052748;28;20192;-44
2021/03/08 04:12:01;;;;;;;1999.90;999.90;;;18.00;76.60;;;;;;5052857;28;20196;-45
2021/03/08 04:14:33;;;;;;;1999.90;999.90;;;18.00;76.80;;;;;;5052827;28;20239;-45
2021/03/08 04:17:01;;;;;;;1999.90;999.90;;;17.90;76.60;;;;;;5052810;28;20169;-44
2021/03/08 04:19:30;;;;;;;1999.90;999.90;;;18.00;76.60;;;;;;5052919;28;20240;-45
2021/03/08 04:22:07;;;;;;;1999.90;999.90;;;17.90;76.60;;;;;;5052741;28;20173;-44
2021/03/08 04:24:37;;;;;;;1999.90;999.90;;;17.90;76.90;;;;;;5052606;28;20161;-45
2021/03/08 04:27:08;;;;;;;1999.90;999.90;;;17.90;77.00;;;;;;5052620;28;20252;-45
2021/03/08 04:29:41;;;;;;;1999.90;999.90;;;17.80;77.60;;;;;;5052633;28;20188;-44
2021/03/08 04:32:10;;;;;;;1999.90;999.90;;;17.80;77.60;;;;;;5052275;28;20229;-45
2021/03/08 04:34:37;;;;;;;1999.90;999.90;;;17.80;77.60;;;;;;5052452;28;20189;-44
2021/03/08 04:37:05;;;;;;;1999.90;999.90;;;17.80;78.00;;;;;;5052699;28;20187;-45
2021/03/08 04:39:37;;;;;;;1999.90;999.90;;;17.80;77.90;;;;;;5052628;28;20166;-44
2021/03/08 04:42:08;;;;;;;1999.90;999.90;;;17.80;77.90;;;;;;5052392;28;20153;-44
2021/03/08 04:44:40;;;;;;;1999.90;999.90;;;17.70;77.90;;;;;;5054262;28;20161;-45
2021/03/08 04:47:08;;;;;;;1999.90;999.90;;;17.60;78.20;;;;;;5056272;28;20176;-46
2021/03/08 04:49:35;;;;;;;1999.90;999.90;;;17.70;78.50;;;;;;5056284;28;20603;-49
2021/03/08 04:52:03;;;;;;;1999.90;999.90;;;17.70;78.20;;;;;;5056312;28;20173;-44
2021/03/08 04:54:31;;;;;;;1999.90;999.90;;;17.60;78.20;;;;;;5056231;28;20165;-44
2021/03/08 04:56:58;;;;;;;1999.90;999.90;;;17.70;78.50;;;;;;5056175;28;20204;-44
2021/03/08 04:59:25;;;;;;;1999.90;999.90;;;17.80;77.90;;;;;;5056041;28;20655;-46
2021/03/08 05:01:56;;;;;;;1999.90;999.90;;;17.80;77.90;;;;;;5056043;28;20184;-44
2021/03/08 05:04:24;;;;;;;1999.90;999.90;;;17.70;77.80;;;;;;5056024;28;20177;-44
2021/03/08 05:06:53;;;;;;;1999.90;999.90;;;17.80;77.80;;;;;;5055938;28;20319;-44
2021/03/08 05:09:20;;;;;;;1999.90;999.90;;;17.80;77.80;;;;;;5055746;28;20176;-44
2021/03/08 05:11:50;;;;;;;1999.90;999.90;;;17.80;77.80;;;;;;5055807;28;20188;-44
2021/03/08 05:14:22;;;;;;;1999.90;999.90;;;17.80;77.90;;;;;;5055686;28;20162;-44
2021/03/08 05:16:50;;;;;;;1999.90;999.90;;;17.90;77.40;;;;;;5055618;28;20176;-44
2021/03/08 05:19:18;;;;;;;1999.90;999.90;;;18.00;77.10;;;;;;5055620;28;20172;-44
2021/03/08 05:21:47;;;;;;;1999.90;999.90;;;18.00;76.80;;;;;;5055498;28;20533;-44
2021/03/08 05:24:14;;;;;;;1999.90;999.90;;;18.00;76.40;;;;;;5055381;28;20347;-45
2021/03/08 05:26:41;;;;;;;1999.90;999.90;;;18.10;76.50;;;;;;5055301;28;20243;-44
2021/03/08 05:29:09;;;;;;;1999.90;999.90;;;18.10;76.50;;;;;;5055314;28;20161;-44
2021/03/08 05:31:41;;;;;;;1999.90;999.90;;;18.10;76.40;;;;;;5055348;28;20169;-45
2021/03/08 05:34:10;;;;;;;1999.90;999.90;;;18.10;76.50;;;;;;5055093;28;20177;-45
2021/03/08 05:36:47;;;;;;;1999.90;999.90;;;18.20;76.30;;;;;;5055398;28;20346;-46
2021/03/08 05:39:16;;;;;;;1999.90;999.90;;;18.20;75.60;;;;;;5053973;28;20779;-45
2021/03/08 05:42:19;;;;;;;1999.90;999.90;;;18.30;75.70;;;;;;5054998;28;20169;-47
2021/03/08 05:45:11;;;;;;;1999.90;999.90;;;18.40;76.60;;;;;;5055079;28;20181;-46
2021/03/08 05:47:53;;;;;;;1999.90;999.90;;;18.40;76.20;;;;;;5054877;28;20181;-49
2021/03/08 05:50:57;;;;;;;1999.90;999.90;;;18.40;76.50;;;;;;5054890;28;20153;-45
2021/03/08 05:53:23;;;;;;;1999.90;999.90;;;18.50;76.60;;;;;;5055039;28;20160;-46
2021/03/08 05:56:28;;;;;;;1999.90;999.90;;;18.40;76.50;;;;;;5054049;28;20205;-50
2021/03/08 05:59:16;;;;;;;1999.90;999.90;;;18.60;75.30;;;;;;5054007;28;20699;-51
2021/03/08 06:02:02;;;;;;;1999.90;999.90;;;18.80;73.70;;;;;;5054397;28;20165;-56
2021/03/08 06:05:02;;;;;;;1999.90;999.90;;;19.00;73.70;;;;;;5054249;28;20164;-44
2021/03/08 06:07:56;;;;;;;1999.90;999.90;;;19.10;72.70;;;;;;5052809;28;20172;-50
2021/03/08 06:10:24;;;;;;;1999.90;999.90;;;19.30;72.40;;;;;;5052187;28;20238;-50
2021/03/08 06:12:54;;;;;;;1999.90;999.90;;;19.40;71.80;;;;;;5054113;28;20185;-42
2021/03/08 06:15:22;;;;;;;1999.90;999.90;;;19.50;71.70;;;;;;5054119;28;20197;-40
2021/03/08 06:17:50;;;;;;;1999.90;999.90;;;19.40;71.20;;;;;;5053554;28;20652;-59
2021/03/08 06:20:19;;;;;;;1999.90;999.90;;;19.30;71.50;;;;;;5054116;28;20260;-55
2021/03/08 06:22:47;;;;;;;1999.90;999.90;;;19.50;71.30;;;;;;5053792;28;20176;-46
2021/03/08 06:25:14;;;;;;;1999.90;999.90;;;19.60;70.80;;;;;;5054182;28;20219;-51
2021/03/08 06:27:45;;;;;;;1999.90;999.90;;;19.80;70.80;;;;;;5053682;28;20172;-55
2021/03/08 06:30:12;;;;;;;1999.90;999.90;;;19.90;70.00;;;;;;5053742;28;20204;-46
2021/03/08 06:32:39;;;;;;;1999.90;999.90;;;20.00;69.40;;;;;;5051289;28;20304;-44
2021/03/08 06:35:07;;;;;;;1999.90;999.90;;;20.10;69.30;;;;;;5051442;28;20538;-43
2021/03/08 06:37:34;;;;;;;1999.90;999.90;;;20.10;68.10;;;;;;5052987;28;20813;-54
2021/03/08 06:40:01;;;;;;;1999.90;999.90;;;20.00;69.10;;;;;;5053922;28;20173;-47
2021/03/08 06:42:28;;;;;;;1999.90;999.90;;;20.10;69.30;;;;;;5053699;28;20205;-46
2021/03/08 06:44:55;;;;;;;1999.90;999.90;;;20.30;68.30;;;;;;5053794;28;20165;-55
2021/03/08 06:47:23;;;;;;;1999.90;999.90;;;20.40;67.70;;;;;;5053041;28;20173;-55
2021/03/08 06:49:49;;;;;;;1999.90;999.90;;;20.40;67.60;;;;;;5055122;28;20274;-44
2021/03/08 06:52:21;;;;;;;1999.90;999.90;;;20.40;67.40;;;;;;5032697;28;20177;-58
2021/03/08 06:55:05;;;;;;;1999.90;999.90;;;20.40;67.20;;;;;;5045662;28;20197;-43
2021/03/08 06:57:38;;;;;;;1999.90;999.90;;;20.60;66.90;;;;;;5051699;28;20291;-40
2021/03/08 07:00:08;;;;;;;1999.90;999.90;;;20.60;65.80;;;;;;5051087;28;20185;-43
2021/03/08 07:02:44;;;;;;;1999.90;999.90;;;20.50;66.30;;;;;;5052973;28;20181;-42
2021/03/08 07:05:21;;;;;;;1999.90;999.90;;;20.70;66.20;;;;;;5052034;28;20307;-45
2021/03/08 07:08:00;;;;;;;1999.90;999.90;;;20.60;66.20;;;;;;5047651;28;20235;-42
2021/03/08 07:10:37;;;;;;;1999.90;999.90;;;20.60;66.00;;;;;;5053280;28;20576;-40
2021/03/08 07:13:08;;;;;;;1999.90;999.90;;;20.80;65.50;;;;;;5051440;28;20173;-45
2021/03/08 07:15:54;;;;;;;1999.90;999.90;;;20.80;65.70;;;;;;5054503;28;20560;-44
2021/03/08 07:18:22;;;;;;;1999.90;999.90;;;21.00;63.90;;;;;;5052951;28;20169;-41
2021/03/08 07:21:17;;;;;;;1999.90;999.90;;;20.90;64.70;;;;;;5051688;28;20656;-42
2021/03/08 07:23:46;;;;;;;1999.90;999.90;;;21.10;64.50;;;;;;5031796;28;20172;-46
2021/03/08 07:26:16;;;;;;;1999.90;999.90;;;21.20;63.60;;;;;;5042485;28;20234;-44
2021/03/08 07:28:43;;;;;;;1999.90;999.90;;;21.30;62.90;;;;;;5052513;28;20168;-49
2021/03/08 07:31:34;;;;;;;1999.90;999.90;;;21.50;62.60;;;;;;5052561;28;20169;-39
2021/03/08 07:34:02;;;;;;;1999.90;999.90;;;21.60;62.00;;;;;;5050880;28;20664;-43
2021/03/08 07:36:29;;;;;;;1999.90;999.90;;;21.60;62.20;;;;;;5051720;28;20679;-42
2021/03/08 07:38:56;;;;;;;1999.90;999.90;;;21.90;62.50;;;;;;5052050;28;20306;-39
2021/03/08 07:41:24;;;;;;;1999.90;999.90;;;21.80;60.70;;;;;;5051901;28;20161;-40
2021/03/08 07:44:05;;;;;;;1999.90;999.90;;;21.40;61.30;;;;;;5052479;28;20278;-50
2021/03/08 07:46:36;;;;;;;1999.90;999.90;;;21.20;62.60;;;;;;5052419;28;20169;-40
2021/03/08 07:49:07;;;;;;;1999.90;999.90;;;21.30;62.70;;;;;;5051157;28;20680;-42
2021/03/08 07:51:34;;;;;;;1999.90;999.90;;;21.50;62.40;;;;;;5052485;28;20160;-44
2021/03/08 07:54:05;;;;;;;1999.90;999.90;;;21.50;62.00;;;;;;5052135;28;20172;-41
2021/03/08 07:56:34;;;;;;;1999.90;999.90;;;21.60;62.00;;;;;;5051461;28;20655;-43
2021/03/08 07:59:01;;;;;;;1999.90;999.90;;;21.80;61.70;;;;;;5051927;28;20204;-40
2021/03/08 08:01:28;;;;;;;1999.90;999.90;;;21.90;60.90;;;;;;5051455;28;20262;-41
2021/03/08 08:03:55;;;;;;;1999.90;999.90;;;21.80;60.60;;;;;;5051602;28;20249;-42
2021/03/08 08:06:23;;;;;;;1999.90;999.90;;;21.90;60.50;;;;;;5052128;28;20327;-44
2021/03/08 08:08:55;;;;;;;1999.90;999.90;;;22.10;60.20;;;;;;5050882;28;20551;-42
2021/03/08 08:11:27;;;;;;;1999.90;999.90;;;21.90;59.80;;;;;;5051388;28;20173;-45
2021/03/08 08:14:02;;;;;;;1999.90;999.90;;;22.00;61.10;;;;;;5051852;28;20258;-41
2021/03/08 08:16:42;;;;;;;1999.90;999.90;;;22.20;60.20;;;;;;5050986;28;20494;-43
2021/03/08 08:19:10;;;;;;;1999.90;999.90;;;22.90;58.20;;;;;;5053546;28;20243;-41
2021/03/08 08:21:39;;;;;;;1999.90;999.90;;;23.40;57.70;;;;;;5055512;28;20184;-42
2021/03/08 08:24:26;;;;;;;1999.90;999.90;;;23.80;55.80;;;;;;5055823;28;20181;-43
2021/03/08 08:26:58;;;;;;;1999.90;999.90;;;24.10;55.10;;;;;;5055607;28;20192;-43
2021/03/08 08:29:26;;;;;;;1999.90;999.90;;;24.50;54.20;;;;;;5051638;28;20165;-43
2021/03/08 08:32:11;;;;;;;1999.90;999.90;;;24.70;52.80;;;;;;5055660;28;20169;-47
2021/03/08 08:34:51;;;;;;;1999.90;999.90;;;24.40;53.60;;;;;;5055165;28;20524;-43
2021/03/08 08:37:19;;;;;;;1999.90;999.90;;;23.20;56.10;;;;;;5048242;28;20251;-41
2021/03/08 08:39:52;;;;;;;1999.90;999.90;;;23.60;56.90;;;;;;5055752;28;20170;-39
2021/03/08 08:42:24;;;;;;;1999.90;999.90;;;24.40;54.50;;;;;;5055908;28;20180;-46
2021/03/08 08:44:55;;;;;;;1999.90;999.90;;;24.90;53.20;;;;;;5055192;28;20647;-41
2021/03/08 08:47:29;;;;;;;1999.90;999.90;;;25.10;52.70;;;;;;5055835;28;20648;-46
2021/03/08 08:49:58;;;;;;;1999.90;999.90;;;25.50;52.10;;;;;;5055118;28;20605;-42
2021/03/08 08:52:46;;;;;;;1999.90;999.90;;;26.20;50.20;;;;;;5055594;28;20177;-62
2021/03/08 08:55:20;;;;;;;1999.90;999.90;;;26.80;49.30;;;;;;5054447;28;20790;-59
2021/03/08 08:58:24;;;;;;;1999.90;999.90;;;27.10;48.10;;;;;;5047425;28;20617;-45
2021/03/08 09:01:10;;;;;;;1999.90;999.90;;;27.30;47.40;;;;;;5055470;28;20258;-50
2021/03/08 09:04:07;;;;;;;1999.90;999.90;;;26.90;46.50;;;;;;5055303;28;20264;-54
2021/03/08 09:06:59;;;;;;;1999.90;999.90;;;26.10;47.70;;;;;;5055099;28;20165;-50
2021/03/08 09:09:32;;;;;;;1999.90;999.90;;;25.70;49.00;;;;;;5055744;28;20164;-54
2021/03/08 09:12:06;;;;;;;1999.90;999.90;;;25.50;48.40;;;;;;5055043;28;20252;-48
2021/03/08 09:14:37;;;;;;;1999.90;999.90;;;25.30;49.40;;;;;;5055106;28;20161;-49
2021/03/08 09:17:08;;;;;;;1999.90;999.90;;;25.20;51.00;;;;;;5054925;28;20169;-53
2021/03/08 09:19:35;;;;;;;1999.90;999.90;;;25.10;50.60;;;;;;5054395;28;20196;-47
2021/03/08 09:22:27;;;;;;;1999.90;999.90;;;25.10;51.10;;;;;;5054353;28;20192;-49
2021/03/08 09:25:01;;;;;;;1999.90;999.90;;;24.70;51.10;;;;;;5049229;28;20177;-43
2021/03/08 09:27:33;;;;;;;1999.90;999.90;;;24.70;50.70;;;;;;5054782;28;20156;-53
2021/03/08 09:30:07;;;;;;;1999.90;999.90;;;25.00;50.30;;;;;;5054627;28;20175;-49
2021/03/08 09:32:34;;;;;;;1999.90;999.90;;;25.20;50.30;;;;;;5054325;28;20217;-50
2021/03/08 09:35:07;;;;;;;1999.90;999.90;;;25.80;48.90;;;;;;5054664;28;20215;-51
2021/03/08 09:37:34;;;;;;;1999.90;999.90;;;26.50;47.10;;;;;;5053594;28;20192;-55
2021/03/08 09:40:03;;;;;;;1999.90;999.90;;;27.10;45.50;;;;;;5053916;28;20169;-45
2021/03/08 09:42:40;;;;;;;1999.90;999.90;;;27.20;44.40;;;;;;5054650;28;20632;-51
2021/03/08 09:45:17;;;;;;;1999.90;999.90;;;25.80;45.90;;;;;;5052666;28;20503;-47
2021/03/08 09:47:45;;;;;;;1999.90;999.90;;;25.80;47.20;;;;;;5050025;28;20161;-48
2021/03/08 09:50:17;;;;;;;1999.90;999.90;;;25.70;47.30;;;;;;5054426;28;20175;-49
2021/03/08 09:52:46;;;;;;;1999.90;999.90;;;26.10;47.00;;;;;;5053694;28;20261;-47
2021/03/08 09:55:21;;;;;;;1999.90;999.90;;;26.30;46.20;;;;;;5053791;28;20193;-53
2021/03/08 09:57:48;;;;;;;1999.90;999.90;;;26.40;46.30;;;;;;5053911;28;20252;-57
2021/03/08 10:00:28;;;;;;;1999.90;999.90;;;27.20;44.30;;;;;;5053418;28;20177;-53
2021/03/08 10:02:59;;;;;;;1999.90;999.90;;;27.80;43.30;;;;;;5055167;28;20169;-48
2021/03/08 10:05:48;;;;;;;1999.90;999.90;;;28.90;41.50;;;;;;5054990;28;20177;-58
2021/03/08 10:08:19;;;;;;;1999.90;999.90;;;28.90;40.40;;;;;;5054966;28;20240;-59
2021/03/08 10:10:48;;;;;;;1999.90;999.90;;;28.60;40.80;;;;;;5054531;28;20180;-56
2021/03/08 10:13:16;;;;;;;1999.90;999.90;;;28.00;41.50;;;;;;5054276;28;20749;-58
2021/03/08 10:15:45;;;;;;;1999.90;999.90;;;27.40;42.90;;;;;;5054080;28;20205;-55
2021/03/08 10:18:12;;;;;;;1999.90;999.90;;;27.50;42.80;;;;;;5053725;28;20247;-59
2021/03/08 10:20:57;;;;;;;1999.90;999.90;;;27.70;42.50;;;;;;5053569;28;20173;-50
2021/03/08 10:23:29;;;;;;;1999.90;999.90;;;27.50;42.80;;;;;;5054218;28;20434;-55
2021/03/08 10:26:10;;;;;;;1999.90;999.90;;;27.30;42.70;;;;;;5054289;28;20161;-51
2021/03/08 10:28:52;;;;;;;1999.90;999.90;;;26.30;42.90;;;;;;5053846;28;20181;-60
2021/03/08 10:31:25;;;;;;;1999.90;999.90;;;25.80;44.80;;;;;;5054059;28;20248;-50
2021/03/08 10:34:11;;;;;;;1999.90;999.90;;;25.30;45.40;;;;;;5053420;28;20221;-49
2021/03/08 10:36:41;;;;;;;1999.90;999.90;;;25.00;46.30;;;;;;5053427;28;20570;-44
2021/03/08 10:39:11;;;;;;;1999.90;999.90;;;24.90;46.20;;;;;;5053560;28;20165;-49
2021/03/08 10:41:40;;;;;;;1999.90;999.90;;;24.70;46.80;;;;;;5052517;28;20651;-47
2021/03/08 10:44:07;;;;;;;1999.90;999.90;;;24.50;46.90;;;;;;5053149;28;20173;-49
2021/03/08 10:46:42;;;;;;;1999.90;999.90;;;24.30;47.30;;;;;;5053782;28;20161;-49
2021/03/08 10:49:10;;;;;;;1999.90;999.90;;;24.30;47.30;;;;;;5053134;28;20278;-53
2021/03/08 10:51:41;;;;;;;1999.90;999.90;;;24.80;47.10;;;;;;5053057;28;20251;-48
2021/03/08 10:54:10;;;;;;;1999.90;999.90;;;25.00;45.40;;;;;;5053670;28;20655;-51
2021/03/08 10:56:39;;;;;;;1999.90;999.90;;;25.30;44.90;;;;;;5053695;28;20201;-53
2021/03/08 10:59:29;;;;;;;1999.90;999.90;;;25.50;44.30;;;;;;5053690;28;20553;-51
2021/03/08 11:02:06;;;;;;;1999.90;999.90;;;25.70;43.80;;;;;;5039000;28;20617;-49
2021/03/08 11:04:33;;;;;;;1999.90;999.90;;;25.40;43.30;;;;;;5052043;28;20547;-53
2021/03/08 11:07:00;;;;;;;1999.90;999.90;;;25.00;43.20;;;;;;5051875;28;20177;-48
2021/03/08 11:09:31;;;;;;;1999.90;999.90;;;24.70;44.20;;;;;;5053320;28;20173;-53
2021/03/08 11:11:59;;;;;;;1999.90;999.90;;;24.40;44.70;;;;;;5033691;28;20169;-51
2021/03/08 11:14:27;;;;;;;1999.90;999.90;;;24.70;44.10;;;;;;5041413;28;20169;-56
2021/03/08 11:16:56;;;;;;;1999.90;999.90;;;25.10;43.00;;;;;;5050047;28;20275;-60
2021/03/08 11:19:28;;;;;;;1999.90;999.90;;;25.40;42.60;;;;;;5052937;28;20207;-58
2021/03/08 11:22:13;;;;;;;1999.90;999.90;;;25.70;41.10;;;;;;5053241;28;20651;-52
2021/03/08 11:24:52;;;;;;;1999.90;999.90;;;25.80;40.20;;;;;;5048889;28;20205;-54
2021/03/08 11:27:25;;;;;;;1999.90;999.90;;;26.00;40.60;;;;;;5051639;28;20177;-48
2021/03/08 11:30:11;;;;;;;1999.90;999.90;;;26.20;39.30;;;;;;5052320;28;20539;-51
2021/03/08 11:32:40;;;;;;;1999.90;999.90;;;26.10;38.80;;;;;;5052509;28;20235;-53
2021/03/08 11:35:18;;;;;;;1999.90;999.90;;;25.90;39.60;;;;;;5051969;28;20246;-44
2021/03/08 11:37:50;;;;;;;1999.90;999.90;;;25.90;40.30;;;;;;5052309;28;20164;-52
2021/03/08 11:40:19;;;;;;;1999.90;999.90;;;26.30;39.80;;;;;;5052387;28;20173;-45
2021/03/08 11:42:46;;;;;;;1999.90;999.90;;;26.40;38.30;;;;;;5050412;28;20169;-44
2021/03/08 11:45:13;;;;;;;1999.90;999.90;;;26.30;38.00;;;;;;5051607;28;20169;-51
2021/03/08 11:47:40;;;;;;;1999.90;999.90;;;26.40;37.50;;;;;;5049073;28;20391;-48
2021/03/08 11:50:07;;;;;;;1999.90;999.90;;;26.40;37.50;;;;;;5049944;28;20287;-48
2021/03/08 11:52:34;;;;;;;1999.90;999.90;;;26.10;37.70;;;;;;5051537;28;20165;-48
2021/03/08 11:55:01;;;;;;;1999.90;999.90;;;25.90;37.60;;;;;;5051875;28;20205;-43
2021/03/08 11:57:28;;;;;;;1999.90;999.90;;;25.80;37.50;;;;;;5050933;28;20644;-59
2021/03/08 11:59:55;;;;;;;1999.90;999.90;;;25.30;38.50;;;;;;5052409;28;20251;-48
2021/03/08 12:02:22;;;;;;;1999.90;999.90;;;25.70;39.90;;;;;;5052365;28;20344;-47
2021/03/08 12:04:49;;;;;;;1999.90;999.90;;;26.00;39.90;;;;;;5052211;28;20223;-48
2021/03/08 12:07:15;;;;;;;1999.90;999.90;;;26.40;39.80;;;;;;5052400;28;20222;-45
2021/03/08 12:09:42;;;;;;;1999.90;999.90;;;26.70;38.60;;;;;;5051733;28;20185;-45
2021/03/08 12:12:09;;;;;;;1999.90;999.90;;;26.90;38.20;;;;;;5045220;28;20188;-46
2021/03/08 12:14:36;;;;;;;1999.90;999.90;;;27.10;38.60;;;;;;5049903;28;20169;-43
2021/03/08 12:17:03;;;;;;;1999.90;999.90;;;27.30;38.40;;;;;;5052171;28;20257;-58
2021/03/08 12:19:30;;;;;;;1999.90;999.90;;;26.90;38.10;;;;;;5051466;28;20299;-48
2021/03/08 12:21:58;;;;;;;1999.90;999.90;;;27.10;38.50;;;;;;5051046;28;20226;-43